Luzerne, Michigan
Current Conditions -  °F | °C
As of 2:15 PM on Saturday 25 Oct 2014 (Local Time) from KGOV Reporting Station
Clear Clear  
Wind Chill: 60°   Ceiling: Unl
Heat Index: 60°   Visibility: 10mi
Dew Point: 37°   Wind: 22mph
Humidity: 42%   Direction: 300°WNW
Pressure: 29.71"   Gusts: 28mph
Location:  44.62°N, 84.27°W
Report Text: KGOV 251815Z AUTO 30019G24KT 10SM CLR 16/03 A2971 RMK AO2 T01570027
Loading
Personal Weather Stations






























Interactive Weather Map
Tropical Storm Tracking
New forecast layout! Learn more

10-Day Weather Forecast

Advertisements
Track Severe Weather on mobile